London, KY

4:13 AM EDT on July 25, 2014 (GMT -0400)
MSWO (KHJYKYLO1) Elev 1163 ft | 37.07 °N, 84.09 °W | Change Station
Active Advisory: Special Statement

Current weather conditions updated 0 second ago

Fog
Fog
59.5 °F
Feels Like 59.5 °F
N
0.0
Wind Variable Wind from ENE
Gusts 0.0 mph

Today is forecast to be Much Warmer than yesterday.

Today
High -- | Low -- °F
--% Chance of Precip.
Yesterday
High -- | Low -- °F
Precip. -- in
6:35 AM 8:49 PM
Waning Crescent, 2% visible
Pressure 30.04 in
Visibility 0.2 miles
Clouds
Dew Point 59 °F
Humidity 98%
Rainfall 0.00 in
Snow Depth Not available.
UV Not available.
Pollen .60 out of 12
Air Quality Not available.
Flu Activity Not available.
METAR KLOZ 250753Z AUTO 13003KT 1/4SM FG VV001 15/14 A3007 RMK AO2 SLP173 T01500144

More Conditions Fewer Conditions

Pressure 30.04 in
Visibility 0.2 miles
Clouds
Dew Point 59 °F
Humidity 98%
Rainfall 0.00 in
Snow Depth Not available.
UV Not available.
Pollen .60 out of 12
Air Quality Not available.
Flu Activity Not available.
METAR KLOZ 250753Z AUTO 13003KT 1/4SM FG VV001 15/14 A3007 RMK AO2 SLP173 T01500144

More Conditions Fewer Conditions

10-Day Weather Forecast

Almanac

Astronomy

Jul. 25, 2014 Rise Set
Actual Time 6:35 AM EDT 8:49 PM EDT
Civil Twilight 6:06 AM EDT 9:19 PM EDT
Nautical Twilight 5:30 AM EDT 9:54 PM EDT
Astronomical Twilight 4:51 AM EDT 10:33 PM EDT
Moon 5:33 AM EDT 7:47 PM EDT
Length of Visible Light 15h 12m
Length of Day
14h 13m
Tomorrow will be 1m 35s shorter.
Waning Crescent, 2% of the Moon is Illuminated
Today
Waning Crescent
Jul 26
New
Aug 3
First Quarter
Aug 10
Full
Aug 17
Last Quarter

Today's Extremes

State Highs State Lows

Community

WunderPhotos

Upload Photos

1,737,273 photos uploaded!

Nearby

Snow Depth

Station Depth Elevation
No new snow has been reported.

Earthquake Activity

City Distance Mag. Time & Date
No recent earthquake activity has been reported nearby.
Minimum magnitude displayed is 2.5.

Coastal Water Temperatures

Place Temperature
No Stations Reporting

Nearby Weather Stations

Station Location Temp. Dew Point Humidity Wind Precip. Elev Updated Type
MSWO, London, KY 59.5 °F 59 °F 98% ENE  at  0.0 mph 0.00 in / hr 1163 ft 4:13 AM EDT Rapid Fire
Southern McKee, McKee, KY 57.3 °F 55 °F 92% NE  at  0.0 mph 0.00 in / hr 1138 ft 4:13 AM EDT Rapid Fire
Mackey Bend, Barbourville, KY 61.9 °F 62 °F 99% ENE  at  0.0 mph 0.00 in / hr 1020 ft 4:13 AM EDT Rapid Fire
liford's, Barbourville, KY 62.1 °F 62 °F 99% ENE  at  0.0 mph - / hr 1066 ft 4:07 AM EDT Normal

Show More Stations Show Fewer Stations